createdAt,value
2018-11-07T00:02:00.123Z,100077.42
2018-11-07T00:04:25.257Z,100057.73
2018-11-07T00:06:50.365Z,100049.42
2018-11-07T00:09:15.453Z,100047.64
2018-11-07T00:11:40.627Z,100039.34
2018-11-07T00:14:05.890Z,100040.82
2018-11-07T00:16:30.924Z,100050.24
2018-11-07T00:18:56.078Z,100050.55
2018-11-07T00:21:21.174Z,100052.75
2018-11-07T00:26:41.346Z,100042.78
2018-11-07T00:29:06.572Z,100036.02
2018-11-07T00:31:31.677Z,100052.66
2018-11-07T00:33:56.791Z,100051.42
2018-11-07T00:36:21.898Z,100050.30
2018-11-07T00:38:47.088Z,100046.45
2018-11-07T00:41:12.187Z,100048.64
2018-11-07T00:43:37.318Z,100048.64
2018-11-07T00:46:02.414Z,100046.11
2018-11-07T00:48:27.510Z,100038.12
2018-11-07T00:50:52.661Z,100048.02
2018-11-07T00:53:17.761Z,100051.43
2018-11-07T00:55:42.953Z,100052.67
2018-11-07T00:58:08.153Z,100051.66
2018-11-07T01:00:33.190Z,100045.13
2018-11-07T01:03:09.828Z,100053.39
2018-11-07T01:05:34.953Z,100050.20
2018-11-07T01:08:00.064Z,100045.84
2018-11-07T01:10:25.137Z,100043.24
2018-11-07T01:12:50.236Z,100048.55
2018-11-07T01:15:15.467Z,100046.48
2018-11-07T01:17:59.537Z,100043.56
2018-11-07T01:20:24.636Z,99988.95
2018-11-07T01:22:49.763Z,100030.08
2018-11-07T01:25:14.954Z,100034.65
2018-11-07T01:27:40.041Z,100025.27
2018-11-07T01:30:05.710Z,100021.77
2018-11-07T01:32:30.805Z,100020.84
2018-11-07T01:34:55.927Z,100024.11
2018-11-07T01:37:21.026Z,100027.48
2018-11-07T01:39:46.145Z,100025.61
2018-11-07T01:42:11.416Z,100013.98
2018-11-07T01:44:36.452Z,100017.41
2018-11-07T01:47:01.574Z,100017.19
2018-11-07T01:49:26.713Z,100007.81
2018-11-07T01:51:51.871Z,99959.80
2018-11-07T01:54:35.971Z,100004.70
2018-11-07T01:57:01.070Z,99998.75
2018-11-07T01:59:26.212Z,99997.92
2018-11-07T02:01:51.319Z,100001.47
2018-11-07T02:04:16.437Z,99995.30
2018-11-07T02:06:41.571Z,99995.84
2018-11-07T02:09:09.306Z,100001.53
2018-11-07T02:11:34.402Z,99997.59
2018-11-07T02:13:59.541Z,100000.45
2018-11-07T02:16:24.679Z,99999.81
2018-11-07T02:18:49.794Z,99999.94
2018-11-07T02:21:14.884Z,100007.91
2018-11-07T02:23:40.031Z,100011.08
2018-11-07T02:26:05.169Z,100017.06
2018-11-07T02:28:30.314Z,100018.91
2018-11-07T02:30:55.416Z,100018.04
2018-11-07T02:33:20.521Z,100012.91
2018-11-07T02:35:45.604Z,100010.97
2018-11-07T02:43:42.772Z,100000.30
2018-11-07T02:46:08.596Z,100007.14
2018-11-07T02:48:33.688Z,100004.73
2018-11-07T02:50:58.787Z,100009.36
2018-11-07T02:53:23.934Z,100016.14
2018-11-07T02:55:48.992Z,100021.68
2018-11-07T02:58:14.118Z,100032.13
2018-11-07T03:00:39.201Z,100031.38
2018-11-07T03:03:23.325Z,100038.30
2018-11-07T03:05:48.497Z,100034.94
2018-11-07T03:08:13.804Z,100029.20
2018-11-07T03:10:38.946Z,100037.23
2018-11-07T03:13:03.996Z,100040.48
2018-11-07T03:15:29.105Z,100030.48
2018-11-07T03:17:54.169Z,100033.57
2018-11-07T03:20:19.275Z,100037.34
2018-11-07T03:22:44.367Z,100031.22
2018-11-07T03:25:09.483Z,100027.39
2018-11-07T03:27:34.685Z,100021.72
2018-11-07T03:32:36.694Z,100023.05
2018-11-07T03:35:01.786Z,100024.39
2018-11-07T03:37:26.867Z,100024.34
2018-11-07T03:39:52.168Z,100026.98
2018-11-07T03:42:17.068Z,100028.55
2018-11-07T03:44:42.213Z,100024.82
2018-11-07T03:47:07.443Z,100012.80
2018-11-07T03:49:32.512Z,100019.02
2018-11-07T03:51:57.584Z,100019.91
2018-11-07T03:56:59.702Z,100024.57
2018-11-07T03:59:24.782Z,100028.31
2018-11-07T04:01:49.962Z,100027.13
2018-11-07T04:04:15.008Z,100038.70
2018-11-07T04:06:40.183Z,100029.32
2018-11-07T04:09:07.648Z,100030.95
2018-11-07T04:11:51.749Z,100033.06
2018-11-07T04:14:16.920Z,100032.52
2018-11-07T04:16:42.048Z,100034.19
2018-11-07T04:19:07.763Z,100027.43
2018-11-07T04:21:32.887Z,100032.58
2018-11-07T04:24:16.935Z,100032.01
2018-11-07T04:27:00.999Z,100025.55
2018-11-07T04:29:26.100Z,100031.84
2018-11-07T04:31:51.180Z,100032.18
2018-11-07T04:34:35.270Z,100033.74
2018-11-07T04:37:00.422Z,100037.56
2018-11-07T04:39:25.675Z,100032.23
2018-11-07T04:41:50.779Z,100039.53
2018-11-07T04:44:15.948Z,100047.83
2018-11-07T04:46:41.049Z,100047.83
2018-11-07T04:49:06.305Z,100052.58
2018-11-07T04:51:31.390Z,100045.14
2018-11-07T04:53:56.480Z,100040.39
2018-11-07T04:56:21.622Z,100035.53
2018-11-07T04:58:46.695Z,100041.07
2018-11-07T05:01:11.769Z,100041.40
2018-11-07T05:03:37.177Z,100043.08
2018-11-07T05:06:02.260Z,100048.69
2018-11-07T05:08:27.439Z,100042.30
2018-11-07T05:10:52.548Z,100038.09
2018-11-07T05:13:17.647Z,100039.47
2018-11-07T05:15:42.754Z,100046.75
2018-11-07T05:18:07.837Z,100044.53
2018-11-07T05:20:32.957Z,100047.47
2018-11-07T05:22:58.087Z,100041.59
2018-11-07T05:33:12.110Z,100051.36
2018-11-07T05:35:37.271Z,100060.08
2018-11-07T05:38:02.379Z,100062.50
2018-11-07T05:40:27.532Z,100067.45
2018-11-07T05:42:52.697Z,100075.70
2018-11-07T05:45:17.828Z,100070.53
2018-11-07T05:47:42.933Z,100076.40
2018-11-07T05:50:09.220Z,100083.39
2018-11-07T05:52:34.349Z,100089.27
2018-11-07T05:55:07.762Z,100079.22
2018-11-07T05:57:32.919Z,100086.06
2018-11-07T05:59:57.986Z,100077.84
2018-11-07T06:02:23.157Z,100087.02
2018-11-07T06:04:48.225Z,100089.77
2018-11-07T06:07:13.314Z,100093.73
2018-11-07T06:09:38.445Z,100094.73
2018-11-07T06:12:03.547Z,100096.12
2018-11-07T06:14:28.692Z,100103.91
2018-11-07T06:16:53.775Z,100106.20
2018-11-07T06:19:18.831Z,100110.12
2018-11-07T06:21:43.973Z,100113.11
2018-11-07T06:24:09.110Z,100112.63
2018-11-07T06:26:34.253Z,100105.97
2018-11-07T06:28:59.328Z,100107.63
2018-11-07T06:31:24.417Z,100111.41
2018-11-07T06:33:49.554Z,100116.62
2018-11-07T06:36:14.608Z,100123.88
2018-11-07T06:38:39.741Z,100125.83
2018-11-07T06:41:04.824Z,100121.61
2018-11-07T06:46:08.970Z,100133.92
2018-11-07T06:48:34.084Z,100139.73
2018-11-07T06:50:59.239Z,100143.62
2018-11-07T06:56:02.796Z,100148.39
2018-11-07T06:58:28.866Z,100140.62
2018-11-07T07:00:53.939Z,100140.47
2018-11-07T07:03:19.018Z,100148.09
2018-11-07T07:05:44.113Z,100151.33
2018-11-07T07:08:09.215Z,100154.36
2018-11-07T07:10:34.296Z,100152.55
2018-11-07T07:12:59.392Z,100150.30
2018-11-07T07:15:24.507Z,100151.59
2018-11-07T07:17:49.609Z,100158.02
2018-11-07T07:22:54.263Z,100157.47
2018-11-07T07:25:19.379Z,100166.48
2018-11-07T07:27:45.377Z,100160.41
2018-11-07T07:30:13.237Z,100155.91
2018-11-07T07:32:57.284Z,100166.45
2018-11-07T07:35:22.306Z,100161.34
2018-11-07T07:37:47.440Z,100111.30
2018-11-07T07:40:31.534Z,100167.99
2018-11-07T07:42:56.653Z,100166.13
2018-11-07T07:45:21.819Z,100169.20
2018-11-07T07:47:47.134Z,100169.63
2018-11-07T07:50:30.962Z,100162.99
2018-11-07T07:52:56.127Z,100172.16
2018-11-07T07:55:21.210Z,100165.05
2018-11-07T07:57:46.256Z,100167.20
2018-11-07T08:00:21.920Z,100162.41
2018-11-07T08:02:48.146Z,100161.88
2018-11-07T08:05:13.339Z,100177.00
2018-11-07T08:07:38.551Z,100181.34
2018-11-07T08:10:03.669Z,100180.95
2018-11-07T08:12:28.787Z,100173.17
2018-11-07T08:14:53.898Z,100171.41
2018-11-07T08:17:19.026Z,100173.67
2018-11-07T08:19:55.623Z,100180.36
2018-11-07T08:22:20.724Z,100179.42
2018-11-07T08:24:45.877Z,100174.62
2018-11-07T08:27:10.968Z,100172.88
2018-11-07T08:29:55.047Z,100180.57
2018-11-07T08:32:32.762Z,100187.92
2018-11-07T08:35:17.091Z,100185.72
2018-11-07T08:37:43.180Z,100193.17
2018-11-07T08:42:47.643Z,100201.72
2018-11-07T08:45:13.571Z,100196.27
2018-11-07T08:47:38.735Z,100205.11
2018-11-07T08:50:03.951Z,100210.37
2018-11-07T08:52:29.055Z,100208.72
2018-11-07T08:54:54.232Z,100207.30
2018-11-07T08:57:19.312Z,100217.39
2018-11-07T08:59:44.465Z,100222.80
2018-11-07T09:02:28.500Z,100224.09
2018-11-07T09:04:53.606Z,100233.63
2018-11-07T09:07:18.740Z,100229.41
2018-11-07T09:09:44.038Z,100223.28
2018-11-07T09:12:09.231Z,100220.30
2018-11-07T09:14:34.317Z,100220.53
2018-11-07T09:16:59.441Z,100233.42
2018-11-07T09:19:43.523Z,100238.64
2018-11-07T09:22:08.654Z,100233.51
2018-11-07T09:24:33.880Z,100241.25
2018-11-07T09:27:17.880Z,100240.44
2018-11-07T09:29:42.968Z,100243.69
2018-11-07T09:32:08.076Z,100245.92
2018-11-07T09:34:33.232Z,100243.08
2018-11-07T09:36:58.329Z,100241.58
2018-11-07T09:39:23.445Z,100242.97
2018-11-07T09:41:48.660Z,100237.89
2018-11-07T09:44:13.838Z,100236.14
2018-11-07T09:46:39.171Z,100239.52
2018-11-07T09:49:04.301Z,100237.34
2018-11-07T09:51:29.712Z,100231.66
2018-11-07T09:53:54.993Z,100236.91
2018-11-07T09:56:20.014Z,100241.42
2018-11-07T09:58:45.157Z,100245.77
2018-11-07T10:01:10.282Z,100250.42
2018-11-07T10:03:35.547Z,100258.80
2018-11-07T10:06:00.690Z,100260.04
2018-11-07T10:08:27.485Z,100262.20
2018-11-07T10:10:52.616Z,100262.29
2018-11-07T10:13:36.658Z,100258.30
2018-11-07T10:16:01.795Z,100262.34
2018-11-07T10:18:26.972Z,100267.05
2018-11-07T10:20:52.077Z,100263.42
2018-11-07T10:23:17.226Z,100265.47
2018-11-07T10:25:42.320Z,100263.45
2018-11-07T10:28:07.842Z,100264.56
2018-11-07T10:30:32.643Z,100264.23
2018-11-07T10:32:57.730Z,100261.58
2018-11-07T10:35:22.921Z,100261.73
2018-11-07T10:38:07.160Z,100261.57
2018-11-07T10:40:51.045Z,100268.86
2018-11-07T10:43:16.182Z,100261.30
2018-11-07T10:45:41.335Z,100246.41
2018-11-07T10:48:06.750Z,100247.69
2018-11-07T10:50:31.866Z,100252.07
2018-11-07T10:52:56.986Z,100255.88
2018-11-07T10:55:22.084Z,100259.52
2018-11-07T10:57:47.294Z,100269.95
2018-11-07T11:00:32.286Z,100261.51
2018-11-07T11:03:16.148Z,100262.27
2018-11-07T11:05:41.371Z,100253.73
2018-11-07T11:08:06.650Z,100253.80
2018-11-07T11:10:31.798Z,100255.58
2018-11-07T11:12:56.891Z,100264.01
2018-11-07T11:15:22.051Z,100269.50
2018-11-07T11:17:47.178Z,100263.05
2018-11-07T11:20:13.825Z,100248.51
2018-11-07T11:22:38.944Z,100242.39
2018-11-07T11:25:04.185Z,100239.78
2018-11-07T11:27:29.396Z,100246.95
2018-11-07T11:30:13.387Z,100240.17
2018-11-07T11:32:38.823Z,100256.45
2018-11-07T11:35:03.958Z,100236.59
2018-11-07T11:37:28.962Z,100241.70
2018-11-07T11:39:54.127Z,100247.61
2018-11-07T11:42:19.245Z,100245.90
2018-11-07T11:44:44.383Z,100254.69
2018-11-07T11:47:09.490Z,100254.05
2018-11-07T11:49:53.566Z,100245.20
2018-11-07T11:55:13.711Z,100251.36
2018-11-07T11:57:57.766Z,100258.15
2018-11-07T12:00:41.838Z,100250.45
2018-11-07T12:03:06.975Z,100244.58
2018-11-07T12:05:51.066Z,100246.67
2018-11-07T12:08:35.277Z,100241.88
2018-11-07T12:11:00.360Z,100242.25
2018-11-07T12:13:44.562Z,100239.59
2018-11-07T12:16:09.769Z,100235.34
2018-11-07T12:18:53.878Z,100243.17
2018-11-07T12:21:19.118Z,100242.41
2018-11-07T12:24:03.096Z,100238.07
2018-11-07T12:26:28.238Z,100238.95
2018-11-07T12:28:53.368Z,100232.29
2018-11-07T12:31:18.497Z,100239.33
2018-11-07T12:33:43.710Z,100233.50
2018-11-07T12:36:27.855Z,100233.00
2018-11-07T12:38:52.939Z,100226.33
2018-11-07T12:44:13.367Z,100222.75
2018-11-07T12:46:38.596Z,100223.80
2018-11-07T12:49:22.683Z,100234.83
2018-11-07T12:51:47.781Z,100228.47
2018-11-07T12:54:12.846Z,100221.14
2018-11-07T12:56:37.969Z,100222.68
2018-11-07T12:59:03.084Z,100226.24
2018-11-07T13:01:47.183Z,100228.05
2018-11-07T13:04:12.268Z,100225.23
2018-11-07T13:06:39.142Z,100224.84
2018-11-07T13:09:23.963Z,100221.69
2018-11-07T13:11:49.077Z,100222.61
2018-11-07T13:14:33.184Z,100221.84
2018-11-07T13:16:58.682Z,100210.70
2018-11-07T13:19:42.772Z,100219.52
2018-11-07T13:22:26.941Z,100213.80
2018-11-07T13:24:51.924Z,100214.43
2018-11-07T13:27:17.031Z,100213.39
2018-11-07T13:29:42.119Z,100222.53
2018-11-07T13:32:26.320Z,100216.16
2018-11-07T13:34:51.450Z,100223.48
2018-11-07T13:37:35.747Z,100214.41
2018-11-07T13:40:31.898Z,100209.94
2018-11-07T13:42:57.123Z,100210.98
2018-11-07T13:45:41.150Z,100213.51
2018-11-07T13:48:17.877Z,100219.67
2018-11-07T13:50:42.987Z,100223.95
2018-11-07T13:53:08.144Z,100220.83
2018-11-07T13:55:33.146Z,100227.50
2018-11-07T13:58:17.218Z,100231.66
2018-11-07T14:03:18.507Z,100235.62
2018-11-07T14:05:43.741Z,100232.00
2018-11-07T14:08:08.721Z,100230.32
2018-11-07T14:10:52.773Z,100218.58
2018-11-07T14:13:17.905Z,100230.46
2018-11-07T14:16:02.055Z,100235.97
2018-11-07T14:18:27.036Z,100233.05
2018-11-07T14:20:52.109Z,100243.59
2018-11-07T14:23:17.169Z,100237.97
2018-11-07T14:25:42.221Z,100240.13
2018-11-07T14:28:08.120Z,100249.17
2018-11-07T14:30:33.047Z,100246.42
2018-11-07T14:33:09.559Z,100242.60
2018-11-07T14:35:53.654Z,100248.30
2018-11-07T14:38:18.775Z,100254.83
2018-11-07T14:40:43.857Z,100250.25
2018-11-07T14:43:08.996Z,100254.69
2018-11-07T14:45:34.093Z,100261.93
2018-11-07T14:47:59.175Z,100253.56
2018-11-07T14:50:36.886Z,100253.88
2018-11-07T14:53:01.995Z,100257.19
2018-11-07T14:55:27.115Z,100258.73
2018-11-07T14:57:52.197Z,100271.81
2018-11-07T15:00:17.725Z,100260.62
2018-11-07T15:02:43.712Z,100270.20
2018-11-07T15:05:10.312Z,100273.80
2018-11-07T15:07:35.488Z,100272.84
2018-11-07T15:10:00.811Z,100271.20
2018-11-07T15:12:25.931Z,100272.93
2018-11-07T15:14:51.031Z,100273.02
2018-11-07T15:17:16.291Z,100274.66
2018-11-07T15:19:41.245Z,100268.61
2018-11-07T15:22:06.726Z,100274.23
2018-11-07T15:24:50.879Z,100272.91
2018-11-07T15:27:34.973Z,100286.03
2018-11-07T15:30:00.067Z,100278.64
2018-11-07T15:32:25.184Z,100281.72
2018-11-07T15:35:09.733Z,100286.70
2018-11-07T15:37:34.809Z,100288.70
2018-11-07T15:39:59.939Z,100287.78
2018-11-07T15:42:25.045Z,100301.25
2018-11-07T15:45:02.861Z,100296.63
2018-11-07T15:47:27.963Z,100302.14
2018-11-07T15:50:11.812Z,100299.83
2018-11-07T15:52:36.953Z,100306.19
2018-11-07T15:55:02.023Z,100304.58
2018-11-07T15:57:27.123Z,100307.02
2018-11-07T15:59:52.272Z,100313.98
2018-11-07T16:02:17.348Z,100320.64
2018-11-07T16:04:42.437Z,100329.23
2018-11-07T16:07:07.531Z,100330.11
2018-11-07T16:09:32.668Z,100335.27
2018-11-07T16:11:57.773Z,100331.08
2018-11-07T16:14:22.917Z,100331.62
2018-11-07T16:16:48.014Z,100334.12
2018-11-07T16:19:13.129Z,100335.73
2018-11-07T16:21:38.238Z,100342.91
2018-11-07T16:24:03.469Z,100344.63
2018-11-07T16:26:28.562Z,100348.51
2018-11-07T16:28:53.724Z,100346.38
2018-11-07T16:31:18.852Z,100344.73
2018-11-07T16:34:02.902Z,100344.91
2018-11-07T16:36:28.031Z,100351.92
2018-11-07T16:38:53.143Z,100348.17
2018-11-07T16:41:18.454Z,100347.42
2018-11-07T16:43:43.385Z,100351.66
2018-11-07T16:46:08.524Z,100346.89
2018-11-07T16:48:33.741Z,100353.94
2018-11-07T16:50:58.810Z,100357.88
2018-11-07T16:53:24.047Z,100355.77
2018-11-07T16:55:49.141Z,100359.98
2018-11-07T16:58:14.251Z,100358.03
2018-11-07T17:00:39.398Z,100360.33
2018-11-07T17:03:04.523Z,100369.75
2018-11-07T17:05:29.660Z,100367.78
2018-11-07T17:07:54.958Z,100364.70
2018-11-07T17:10:20.084Z,100378.24
2018-11-07T17:12:45.253Z,100369.39
2018-11-07T17:15:10.317Z,100378.66
2018-11-07T17:17:54.436Z,100375.58
2018-11-07T17:20:19.575Z,100372.47
2018-11-07T17:22:45.074Z,100373.27
2018-11-07T17:25:12.432Z,100377.05
2018-11-07T17:27:56.518Z,100376.72
2018-11-07T17:30:21.648Z,100373.77
2018-11-07T17:32:46.780Z,100386.59
2018-11-07T17:35:30.859Z,100390.80
2018-11-07T17:37:56.002Z,100385.16
2018-11-07T17:40:22.711Z,100391.18
2018-11-07T17:42:48.090Z,100387.38
2018-11-07T17:45:32.787Z,100394.39
2018-11-07T17:47:57.947Z,100391.58
2018-11-07T17:50:23.871Z,100391.02
2018-11-07T17:53:07.928Z,100400.36
2018-11-07T17:55:33.074Z,100399.55
2018-11-07T17:57:58.364Z,100407.66
2018-11-07T18:00:32.548Z,100409.36
2018-11-07T18:03:16.671Z,100406.94
2018-11-07T18:05:41.804Z,100411.08
2018-11-07T18:08:06.913Z,100415.07
2018-11-07T18:10:32.076Z,100408.40
2018-11-07T18:12:57.205Z,100415.95
2018-11-07T18:18:01.669Z,100414.05
2018-11-07T18:20:26.773Z,100415.20
2018-11-07T18:22:51.957Z,100423.13
2018-11-07T18:25:17.799Z,100427.98
2018-11-07T18:28:01.947Z,100430.34
2018-11-07T18:30:27.080Z,100430.43
2018-11-07T18:33:03.881Z,100430.22
2018-11-07T18:35:29.029Z,100434.46
2018-11-07T18:37:54.161Z,100439.34
2018-11-07T18:40:20.448Z,100449.53
2018-11-07T18:42:45.675Z,100444.95
2018-11-07T18:45:11.749Z,100448.37
2018-11-07T18:47:55.804Z,100445.95
2018-11-07T18:50:21.304Z,100442.84
2018-11-07T18:52:46.321Z,100443.52
2018-11-07T18:55:12.758Z,100451.70
2018-11-07T18:57:37.922Z,100444.88
2018-11-07T19:00:03.033Z,100441.41
2018-11-07T19:02:28.286Z,100454.14
2018-11-07T19:04:53.507Z,100442.66
2018-11-07T19:07:18.657Z,100443.09
2018-11-07T19:09:43.821Z,100446.11
2018-11-07T19:12:08.968Z,100443.75
2018-11-07T19:14:34.121Z,100445.96
2018-11-07T19:16:59.244Z,100452.02
2018-11-07T19:19:24.404Z,100458.08
2018-11-07T19:21:49.531Z,100459.89
2018-11-07T19:24:14.670Z,100453.05
2018-11-07T19:26:39.898Z,100456.77
2018-11-07T19:29:04.989Z,100456.94
2018-11-07T19:31:30.232Z,100456.77
2018-11-07T19:36:31.807Z,100455.98
2018-11-07T19:38:56.943Z,100455.34
2018-11-07T19:41:22.071Z,100460.91
2018-11-07T19:43:47.237Z,100463.95
2018-11-07T19:46:12.415Z,100470.99
2018-11-07T19:48:37.588Z,100478.70
2018-11-07T19:51:02.727Z,100473.98
2018-11-07T19:53:27.920Z,100481.66
2018-11-07T19:55:53.054Z,100474.50
2018-11-07T19:58:18.193Z,100487.61
2018-11-07T20:03:19.675Z,100485.02
2018-11-07T20:05:44.868Z,100495.77
2018-11-07T20:08:29.015Z,100494.58
2018-11-07T20:10:54.170Z,100495.69
2018-11-07T20:13:38.276Z,100495.52
2018-11-07T20:16:03.408Z,100493.89
2018-11-07T20:18:28.545Z,100499.39
2018-11-07T20:20:53.692Z,100505.25
2018-11-07T20:23:18.939Z,100508.09
2018-11-07T20:26:02.926Z,100520.00
2018-11-07T20:28:28.104Z,100522.11
2018-11-07T20:30:53.395Z,100517.53
2018-11-07T20:33:18.531Z,100517.02
2018-11-07T20:35:43.826Z,100523.87
2018-11-07T20:38:08.847Z,100530.62
2018-11-07T20:40:34.014Z,100531.36
2018-11-07T20:42:59.150Z,100526.66
2018-11-07T20:45:24.305Z,100534.59
2018-11-07T20:47:49.451Z,100537.92
2018-11-07T20:50:16.047Z,100541.11
2018-11-07T20:52:41.765Z,100543.36
2018-11-07T20:55:07.021Z,100538.49
2018-11-07T20:57:32.135Z,100543.64
2018-11-07T21:02:52.731Z,100544.81
2018-11-07T21:05:17.879Z,100541.78
2018-11-07T21:12:56.187Z,100548.64
2018-11-07T21:15:21.906Z,100555.59
2018-11-07T21:17:47.320Z,100547.61
2018-11-07T21:20:12.454Z,100550.44
2018-11-07T21:22:37.622Z,100552.35
2018-11-07T21:25:02.741Z,100557.14
2018-11-07T21:27:27.883Z,100557.95
2018-11-07T21:29:53.001Z,100563.01
2018-11-07T21:32:18.206Z,100559.77
2018-11-07T21:34:43.399Z,100563.47
2018-11-07T21:37:27.501Z,100561.62
2018-11-07T21:40:11.878Z,100566.86
2018-11-07T21:42:37.075Z,100574.81
2018-11-07T21:45:02.325Z,100571.67
2018-11-07T21:47:27.448Z,100574.12
2018-11-07T21:49:52.659Z,100573.54
2018-11-07T21:52:36.822Z,100580.09
2018-11-07T21:55:01.950Z,100580.66
2018-11-07T21:57:27.161Z,100585.80
2018-11-07T21:59:52.299Z,100582.45
2018-11-07T22:02:17.452Z,100584.52
2018-11-07T22:04:42.548Z,100583.18
2018-11-07T22:07:26.770Z,100588.95
2018-11-07T22:09:51.908Z,100585.93
2018-11-07T22:12:17.089Z,100595.52
2018-11-07T22:14:42.466Z,100595.78
2018-11-07T22:17:07.519Z,100588.38
2018-11-07T22:19:32.599Z,100591.95
2018-11-07T22:21:57.720Z,100591.95
2018-11-07T22:24:22.912Z,100588.25
2018-11-07T22:26:47.961Z,100590.89
2018-11-07T22:29:13.147Z,100590.09
2018-11-07T22:34:33.781Z,100601.69
2018-11-07T22:36:58.992Z,100597.83
2018-11-07T22:39:24.111Z,100603.01
2018-11-07T22:41:49.255Z,100604.45
2018-11-07T22:44:33.338Z,100612.33
2018-11-07T22:47:17.413Z,100609.37
2018-11-07T22:49:42.498Z,100612.73
2018-11-07T22:52:07.819Z,100609.22
2018-11-07T22:54:32.949Z,100613.39
2018-11-07T22:56:58.055Z,100613.39
2018-11-07T22:59:23.176Z,100616.87
2018-11-07T23:01:48.283Z,100621.19
2018-11-07T23:04:13.404Z,100622.06
2018-11-07T23:06:39.247Z,100621.38
2018-11-07T23:09:05.240Z,100623.71
2018-11-07T23:11:30.510Z,100628.03
2018-11-07T23:13:55.860Z,100627.25
2018-11-07T23:16:20.936Z,100630.58
2018-11-07T23:18:46.060Z,100632.56
2018-11-07T23:21:11.145Z,100627.09
2018-11-07T23:23:36.308Z,100635.25
2018-11-07T23:26:01.407Z,100629.01
2018-11-07T23:28:26.524Z,100631.25
2018-11-07T23:30:51.652Z,100636.63
2018-11-07T23:33:16.770Z,100636.80
2018-11-07T23:35:41.896Z,100638.42
2018-11-07T23:38:07.012Z,100643.30
2018-11-07T23:40:32.195Z,100644.63
2018-11-07T23:42:57.305Z,100650.09
2018-11-07T23:45:22.472Z,100646.00
2018-11-07T23:47:50.111Z,100645.14
2018-11-07T23:50:15.248Z,100652.09
2018-11-07T23:52:59.093Z,100651.91
2018-11-07T23:55:24.799Z,100655.04
2018-11-07T23:57:50.718Z,100653.66
